sensor_id;sensor_type;location;lat;lon;timestamp;P1;durP1;ratioP1;P2;durP2;ratioP2
54368;SDS011;40266;52.434;17.056;2022-11-20T00:02:07;22.30;;;10.60;;
54368;SDS011;40266;52.434;17.056;2022-11-20T00:07:32;27.10;;;11.20;;
54368;SDS011;40266;52.434;17.056;2022-11-20T00:10:15;22.10;;;11.50;;
54368;SDS011;40266;52.434;17.056;2022-11-20T00:12:58;25.20;;;10.90;;
54368;SDS011;40266;52.434;17.056;2022-11-20T00:15:41;25.30;;;11.50;;
54368;SDS011;40266;52.434;17.056;2022-11-20T00:21:09;22.70;;;11.50;;
54368;SDS011;40266;52.434;17.056;2022-11-20T00:23:55;23.00;;;10.40;;
54368;SDS011;40266;52.434;17.056;2022-11-20T00:26:39;24.70;;;11.20;;
54368;SDS011;40266;52.434;17.056;2022-11-20T00:29:23;24.30;;;10.40;;
54368;SDS011;40266;52.434;17.056;2022-11-20T00:34:49;22.40;;;10.30;;
54368;SDS011;40266;52.434;17.056;2022-11-20T00:37:32;22.10;;;9.10;;
54368;SDS011;40266;52.434;17.056;2022-11-20T00:40:14;21.60;;;9.80;;
54368;SDS011;40266;52.434;17.056;2022-11-20T00:45:40;21.40;;;9.40;;
54368;SDS011;40266;52.434;17.056;2022-11-20T00:48:23;21.80;;;9.80;;
54368;SDS011;40266;52.434;17.056;2022-11-20T00:51:06;21.50;;;9.70;;
54368;SDS011;40266;52.434;17.056;2022-11-20T00:56:31;22.30;;;10.00;;
54368;SDS011;40266;52.434;17.056;2022-11-20T01:01:57;25.70;;;9.60;;
54368;SDS011;40266;52.434;17.056;2022-11-20T01:04:40;25.00;;;10.20;;
54368;SDS011;40266;52.434;17.056;2022-11-20T01:10:06;20.40;;;9.40;;
54368;SDS011;40266;52.434;17.056;2022-11-20T01:12:49;23.70;;;11.20;;
54368;SDS011;40266;52.434;17.056;2022-11-20T01:15:52;28.00;;;11.40;;
54368;SDS011;40266;52.434;17.056;2022-11-20T01:18:35;23.30;;;9.70;;
54368;SDS011;40266;52.434;17.056;2022-11-20T01:21:20;25.00;;;11.10;;
54368;SDS011;40266;52.434;17.056;2022-11-20T01:24:06;21.90;;;10.10;;
54368;SDS011;40266;52.434;17.056;2022-11-20T01:26:50;21.80;;;10.30;;
54368;SDS011;40266;52.434;17.056;2022-11-20T01:29:34;21.80;;;9.30;;
54368;SDS011;40266;52.434;17.056;2022-11-20T01:32:17;20.90;;;10.40;;
54368;SDS011;40266;52.434;17.056;2022-11-20T01:37:43;21.70;;;9.70;;
54368;SDS011;40266;52.434;17.056;2022-11-20T01:43:18;21.10;;;9.80;;
54368;SDS011;40266;52.434;17.056;2022-11-20T01:48:53;23.80;;;12.10;;
54368;SDS011;40266;52.434;17.056;2022-11-20T01:51:57;22.30;;;10.20;;
54368;SDS011;40266;52.434;17.056;2022-11-20T01:54:54;23.90;;;10.80;;
54368;SDS011;40266;52.434;17.056;2022-11-20T01:57:42;27.50;;;11.50;;
54368;SDS011;40266;52.434;17.056;2022-11-20T02:00:28;23.30;;;10.00;;
54368;SDS011;40266;52.434;17.056;2022-11-20T02:03:12;23.60;;;10.70;;
54368;SDS011;40266;52.434;17.056;2022-11-20T02:06:01;22.70;;;10.80;;
54368;SDS011;40266;52.434;17.056;2022-11-20T02:08:51;25.00;;;10.90;;
54368;SDS011;40266;52.434;17.056;2022-11-20T02:11:35;33.00;;;13.20;;
54368;SDS011;40266;52.434;17.056;2022-11-20T02:14:18;26.20;;;11.70;;
54368;SDS011;40266;52.434;17.056;2022-11-20T02:17:01;23.40;;;11.00;;
54368;SDS011;40266;52.434;17.056;2022-11-20T02:22:28;28.90;;;13.80;;
54368;SDS011;40266;52.434;17.056;2022-11-20T02:25:18;26.00;;;11.50;;
54368;SDS011;40266;52.434;17.056;2022-11-20T02:28:02;25.20;;;11.80;;
54368;SDS011;40266;52.434;17.056;2022-11-20T02:30:46;28.30;;;13.10;;
54368;SDS011;40266;52.434;17.056;2022-11-20T02:36:12;24.00;;;12.30;;
54368;SDS011;40266;52.434;17.056;2022-11-20T02:38:59;25.20;;;12.50;;
54368;SDS011;40266;52.434;17.056;2022-11-20T02:41:42;28.90;;;14.50;;
54368;SDS011;40266;52.434;17.056;2022-11-20T02:44:25;26.80;;;12.20;;
54368;SDS011;40266;52.434;17.056;2022-11-20T02:49:50;25.40;;;13.40;;
54368;SDS011;40266;52.434;17.056;2022-11-20T02:52:33;25.10;;;12.70;;
54368;SDS011;40266;52.434;17.056;2022-11-20T02:57:59;29.10;;;13.50;;
54368;SDS011;40266;52.434;17.056;2022-11-20T03:00:42;29.40;;;13.40;;
54368;SDS011;40266;52.434;17.056;2022-11-20T03:03:24;28.30;;;13.40;;
54368;SDS011;40266;52.434;17.056;2022-11-20T03:08:50;29.60;;;13.30;;
54368;SDS011;40266;52.434;17.056;2022-11-20T03:14:17;26.90;;;13.90;;
54368;SDS011;40266;52.434;17.056;2022-11-20T03:17:00;31.80;;;15.90;;
54368;SDS011;40266;52.434;17.056;2022-11-20T03:19:43;32.90;;;15.40;;
54368;SDS011;40266;52.434;17.056;2022-11-20T03:25:11;28.70;;;13.30;;
54368;SDS011;40266;52.434;17.056;2022-11-20T03:27:57;31.10;;;14.60;;
54368;SDS011;40266;52.434;17.056;2022-11-20T03:30:39;29.40;;;15.30;;
54368;SDS011;40266;52.434;17.056;2022-11-20T03:36:06;30.10;;;14.90;;
54368;SDS011;40266;52.434;17.056;2022-11-20T03:38:54;29.90;;;14.70;;
54368;SDS011;40266;52.434;17.056;2022-11-20T03:41:38;28.10;;;15.00;;
54368;SDS011;40266;52.434;17.056;2022-11-20T03:44:22;31.20;;;15.10;;
54368;SDS011;40266;52.434;17.056;2022-11-20T03:49:48;32.60;;;15.10;;
54368;SDS011;40266;52.434;17.056;2022-11-20T03:52:31;32.60;;;14.60;;
54368;SDS011;40266;52.434;17.056;2022-11-20T03:57:56;28.90;;;14.60;;
54368;SDS011;40266;52.434;17.056;2022-11-20T04:00:39;29.70;;;14.40;;
54368;SDS011;40266;52.434;17.056;2022-11-20T04:03:22;29.90;;;14.40;;
54368;SDS011;40266;52.434;17.056;2022-11-20T04:06:06;29.70;;;15.20;;
54368;SDS011;40266;52.434;17.056;2022-11-20T04:08:51;32.70;;;16.90;;
54368;SDS011;40266;52.434;17.056;2022-11-20T04:11:39;30.60;;;15.20;;
54368;SDS011;40266;52.434;17.056;2022-11-20T04:14:22;32.90;;;15.80;;
54368;SDS011;40266;52.434;17.056;2022-11-20T04:17:05;29.40;;;15.30;;
54368;SDS011;40266;52.434;17.056;2022-11-20T04:22:30;32.90;;;14.30;;
54368;SDS011;40266;52.434;17.056;2022-11-20T04:25:13;26.70;;;13.40;;
54368;SDS011;40266;52.434;17.056;2022-11-20T04:30:39;29.70;;;15.70;;
54368;SDS011;40266;52.434;17.056;2022-11-20T04:36:12;29.60;;;13.90;;
54368;SDS011;40266;52.434;17.056;2022-11-20T04:38:57;34.60;;;15.90;;
54368;SDS011;40266;52.434;17.056;2022-11-20T04:41:41;32.80;;;15.40;;
54368;SDS011;40266;52.434;17.056;2022-11-20T04:44:25;32.70;;;14.60;;
54368;SDS011;40266;52.434;17.056;2022-11-20T04:47:08;34.00;;;15.90;;
54368;SDS011;40266;52.434;17.056;2022-11-20T04:52:34;27.20;;;14.20;;
54368;SDS011;40266;52.434;17.056;2022-11-20T04:57:59;29.90;;;15.30;;
54368;SDS011;40266;52.434;17.056;2022-11-20T05:00:42;33.50;;;15.10;;
54368;SDS011;40266;52.434;17.056;2022-11-20T05:03:25;32.80;;;16.20;;
54368;SDS011;40266;52.434;17.056;2022-11-20T05:08:52;32.60;;;14.90;;
54368;SDS011;40266;52.434;17.056;2022-11-20T05:11:34;31.60;;;14.20;;
54368;SDS011;40266;52.434;17.056;2022-11-20T05:17:00;32.40;;;14.10;;
54368;SDS011;40266;52.434;17.056;2022-11-20T05:22:26;31.60;;;14.40;;
54368;SDS011;40266;52.434;17.056;2022-11-20T05:25:09;30.10;;;15.00;;
54368;SDS011;40266;52.434;17.056;2022-11-20T05:27:52;29.30;;;14.20;;
54368;SDS011;40266;52.434;17.056;2022-11-20T05:30:35;27.60;;;13.30;;
54368;SDS011;40266;52.434;17.056;2022-11-20T05:33:20;27.10;;;12.70;;
54368;SDS011;40266;52.434;17.056;2022-11-20T05:36:04;27.00;;;13.30;;
54368;SDS011;40266;52.434;17.056;2022-11-20T05:38:48;30.00;;;14.10;;
54368;SDS011;40266;52.434;17.056;2022-11-20T05:41:32;31.30;;;13.90;;
54368;SDS011;40266;52.434;17.056;2022-11-20T05:44:15;27.00;;;13.20;;
54368;SDS011;40266;52.434;17.056;2022-11-20T05:49:41;31.40;;;15.60;;
54368;SDS011;40266;52.434;17.056;2022-11-20T05:52:24;30.50;;;14.30;;
54368;SDS011;40266;52.434;17.056;2022-11-20T05:55:10;29.20;;;13.90;;
54368;SDS011;40266;52.434;17.056;2022-11-20T06:00:37;29.90;;;15.00;;
54368;SDS011;40266;52.434;17.056;2022-11-20T06:03:20;26.70;;;13.70;;
54368;SDS011;40266;52.434;17.056;2022-11-20T06:06:03;27.20;;;13.80;;
54368;SDS011;40266;52.434;17.056;2022-11-20T06:08:47;29.10;;;15.00;;
54368;SDS011;40266;52.434;17.056;2022-11-20T06:11:30;31.50;;;14.70;;
54368;SDS011;40266;52.434;17.056;2022-11-20T06:14:14;30.90;;;14.60;;
54368;SDS011;40266;52.434;17.056;2022-11-20T06:16:57;30.90;;;13.90;;
54368;SDS011;40266;52.434;17.056;2022-11-20T06:19:40;29.60;;;14.60;;
54368;SDS011;40266;52.434;17.056;2022-11-20T06:22:23;34.80;;;16.30;;
54368;SDS011;40266;52.434;17.056;2022-11-20T06:27:49;29.40;;;14.20;;
54368;SDS011;40266;52.434;17.056;2022-11-20T06:30:31;32.70;;;15.70;;
54368;SDS011;40266;52.434;17.056;2022-11-20T06:33:14;35.80;;;15.60;;
54368;SDS011;40266;52.434;17.056;2022-11-20T06:38:43;31.70;;;15.60;;
54368;SDS011;40266;52.434;17.056;2022-11-20T06:41:26;34.80;;;16.10;;
54368;SDS011;40266;52.434;17.056;2022-11-20T06:44:10;37.00;;;16.60;;
54368;SDS011;40266;52.434;17.056;2022-11-20T06:46:53;35.40;;;16.70;;
54368;SDS011;40266;52.434;17.056;2022-11-20T06:52:20;33.50;;;16.30;;
54368;SDS011;40266;52.434;17.056;2022-11-20T06:55:04;35.70;;;16.90;;
54368;SDS011;40266;52.434;17.056;2022-11-20T06:57:47;38.70;;;17.90;;
54368;SDS011;40266;52.434;17.056;2022-11-20T07:00:37;39.00;;;18.60;;
54368;SDS011;40266;52.434;17.056;2022-11-20T07:03:20;34.40;;;17.00;;
54368;SDS011;40266;52.434;17.056;2022-11-20T07:06:03;33.40;;;16.10;;
54368;SDS011;40266;52.434;17.056;2022-11-20T07:08:51;33.50;;;16.00;;
54368;SDS011;40266;52.434;17.056;2022-11-20T07:11:35;37.70;;;16.70;;
54368;SDS011;40266;52.434;17.056;2022-11-20T07:17:01;34.30;;;17.60;;
54368;SDS011;40266;52.434;17.056;2022-11-20T07:19:44;40.00;;;18.50;;
54368;SDS011;40266;52.434;17.056;2022-11-20T07:25:10;37.60;;;18.30;;
54368;SDS011;40266;52.434;17.056;2022-11-20T07:27:56;34.80;;;17.70;;
54368;SDS011;40266;52.434;17.056;2022-11-20T07:30:42;39.40;;;18.60;;
54368;SDS011;40266;52.434;17.056;2022-11-20T07:33:25;36.60;;;17.30;;
54368;SDS011;40266;52.434;17.056;2022-11-20T07:38:50;38.00;;;17.30;;
54368;SDS011;40266;52.434;17.056;2022-11-20T07:44:17;34.20;;;16.50;;
54368;SDS011;40266;52.434;17.056;2022-11-20T07:47:00;40.30;;;17.80;;
54368;SDS011;40266;52.434;17.056;2022-11-20T07:49:43;38.40;;;18.70;;
54368;SDS011;40266;52.434;17.056;2022-11-20T07:52:26;39.40;;;18.00;;
54368;SDS011;40266;52.434;17.056;2022-11-20T07:55:09;39.30;;;20.00;;
54368;SDS011;40266;52.434;17.056;2022-11-20T07:57:56;33.30;;;17.00;;
54368;SDS011;40266;52.434;17.056;2022-11-20T08:00:42;40.40;;;17.80;;
54368;SDS011;40266;52.434;17.056;2022-11-20T08:06:07;41.00;;;19.70;;
54368;SDS011;40266;52.434;17.056;2022-11-20T08:08:51;37.60;;;18.20;;
54368;SDS011;40266;52.434;17.056;2022-11-20T08:11:34;38.00;;;18.50;;
54368;SDS011;40266;52.434;17.056;2022-11-20T08:14:36;42.80;;;19.00;;
54368;SDS011;40266;52.434;17.056;2022-11-20T08:17:19;39.00;;;19.40;;
54368;SDS011;40266;52.434;17.056;2022-11-20T08:25:28;38.70;;;18.60;;
54368;SDS011;40266;52.434;17.056;2022-11-20T08:28:12;38.00;;;19.30;;
54368;SDS011;40266;52.434;17.056;2022-11-20T08:31:02;37.00;;;18.10;;
54368;SDS011;40266;52.434;17.056;2022-11-20T08:33:46;36.10;;;18.50;;
54368;SDS011;40266;52.434;17.056;2022-11-20T08:36:32;38.00;;;18.40;;
54368;SDS011;40266;52.434;17.056;2022-11-20T08:39:16;42.20;;;19.60;;
54368;SDS011;40266;52.434;17.056;2022-11-20T08:41:59;37.50;;;18.30;;
54368;SDS011;40266;52.434;17.056;2022-11-20T08:47:25;38.90;;;19.40;;
54368;SDS011;40266;52.434;17.056;2022-11-20T08:50:09;37.60;;;18.00;;
54368;SDS011;40266;52.434;17.056;2022-11-20T08:52:53;41.60;;;17.80;;
54368;SDS011;40266;52.434;17.056;2022-11-20T08:58:19;39.40;;;18.80;;
54368;SDS011;40266;52.434;17.056;2022-11-20T09:03:47;44.80;;;18.40;;
54368;SDS011;40266;52.434;17.056;2022-11-20T09:06:30;42.80;;;19.30;;
54368;SDS011;40266;52.434;17.056;2022-11-20T09:09:12;35.60;;;16.80;;
54368;SDS011;40266;52.434;17.056;2022-11-20T09:11:55;39.00;;;18.80;;
54368;SDS011;40266;52.434;17.056;2022-11-20T09:14:38;37.30;;;18.00;;
54368;SDS011;40266;52.434;17.056;2022-11-20T09:20:04;41.30;;;19.40;;
54368;SDS011;40266;52.434;17.056;2022-11-20T09:22:47;34.00;;;16.60;;
54368;SDS011;40266;52.434;17.056;2022-11-20T09:25:31;41.90;;;19.50;;
54368;SDS011;40266;52.434;17.056;2022-11-20T09:30:57;38.70;;;17.70;;
54368;SDS011;40266;52.434;17.056;2022-11-20T09:33:40;56.20;;;21.60;;
54368;SDS011;40266;52.434;17.056;2022-11-20T09:39:05;37.60;;;18.50;;
54368;SDS011;40266;52.434;17.056;2022-11-20T09:44:50;36.30;;;18.00;;
54368;SDS011;40266;52.434;17.056;2022-11-20T09:57:02;32.50;;;16.80;;
54368;SDS011;40266;52.434;17.056;2022-11-20T09:59:53;35.40;;;17.40;;
54368;SDS011;40266;52.434;17.056;2022-11-20T10:05:50;39.10;;;19.40;;
54368;SDS011;40266;52.434;17.056;2022-11-20T10:08:41;36.40;;;18.90;;
54368;SDS011;40266;52.434;17.056;2022-11-20T10:29:12;34.30;;;17.30;;
54368;SDS011;40266;52.434;17.056;2022-11-20T10:32:18;33.00;;;16.90;;
54368;SDS011;40266;52.434;17.056;2022-11-20T10:38:18;35.40;;;17.90;;
54368;SDS011;40266;52.434;17.056;2022-11-20T10:41:06;36.40;;;17.90;;
54368;SDS011;40266;52.434;17.056;2022-11-20T10:44:15;32.90;;;16.70;;
54368;SDS011;40266;52.434;17.056;2022-11-20T10:47:18;36.70;;;17.50;;
54368;SDS011;40266;52.434;17.056;2022-11-20T10:56:25;31.80;;;15.30;;
54368;SDS011;40266;52.434;17.056;2022-11-20T11:02:20;33.90;;;15.80;;
54368;SDS011;40266;52.434;17.056;2022-11-20T11:08:20;32.40;;;16.40;;
54368;SDS011;40266;52.434;17.056;2022-11-20T11:11:12;33.50;;;15.20;;
54368;SDS011;40266;52.434;17.056;2022-11-20T11:16:57;40.10;;;19.50;;
54368;SDS011;40266;52.434;17.056;2022-11-20T11:19:41;37.40;;;19.10;;
54368;SDS011;40266;52.434;17.056;2022-11-20T11:22:24;40.20;;;18.70;;
54368;SDS011;40266;52.434;17.056;2022-11-20T11:25:07;35.10;;;18.60;;
54368;SDS011;40266;52.434;17.056;2022-11-20T11:30:59;41.80;;;20.00;;
54368;SDS011;40266;52.434;17.056;2022-11-20T11:33:42;40.70;;;20.90;;
54368;SDS011;40266;52.434;17.056;2022-11-20T11:39:11;38.30;;;18.20;;
54368;SDS011;40266;52.434;17.056;2022-11-20T11:41:58;40.10;;;20.00;;
54368;SDS011;40266;52.434;17.056;2022-11-20T11:44:46;42.80;;;19.30;;
54368;SDS011;40266;52.434;17.056;2022-11-20T11:47:49;36.80;;;17.00;;
54368;SDS011;40266;52.434;17.056;2022-11-20T11:50:34;36.90;;;18.40;;
54368;SDS011;40266;52.434;17.056;2022-11-20T11:53:21;36.10;;;17.20;;
54368;SDS011;40266;52.434;17.056;2022-11-20T11:56:08;37.20;;;17.40;;
54368;SDS011;40266;52.434;17.056;2022-11-20T11:58:53;33.70;;;16.60;;
54368;SDS011;40266;52.434;17.056;2022-11-20T12:01:44;37.80;;;18.40;;
54368;SDS011;40266;52.434;17.056;2022-11-20T12:04:50;45.10;;;19.80;;
54368;SDS011;40266;52.434;17.056;2022-11-20T12:07:47;39.10;;;19.70;;
54368;SDS011;40266;52.434;17.056;2022-11-20T12:16:46;41.50;;;21.20;;
54368;SDS011;40266;52.434;17.056;2022-11-20T12:19:30;41.70;;;21.40;;
54368;SDS011;40266;52.434;17.056;2022-11-20T12:25:27;42.70;;;21.30;;
54368;SDS011;40266;52.434;17.056;2022-11-20T12:31:09;43.40;;;21.40;;
54368;SDS011;40266;52.434;17.056;2022-11-20T12:37:14;40.20;;;20.40;;
54368;SDS011;40266;52.434;17.056;2022-11-20T12:46:33;43.50;;;21.60;;
54368;SDS011;40266;52.434;17.056;2022-11-20T12:57:53;40.10;;;21.80;;
54368;SDS011;40266;52.434;17.056;2022-11-20T13:00:43;45.30;;;21.80;;
54368;SDS011;40266;52.434;17.056;2022-11-20T13:03:39;46.70;;;22.40;;
54368;SDS011;40266;52.434;17.056;2022-11-20T13:06:29;43.20;;;21.80;;
54368;SDS011;40266;52.434;17.056;2022-11-20T13:15:05;42.70;;;20.60;;
54368;SDS011;40266;52.434;17.056;2022-11-20T13:18:02;50.30;;;23.90;;
54368;SDS011;40266;52.434;17.056;2022-11-20T13:20:47;48.80;;;23.60;;
54368;SDS011;40266;52.434;17.056;2022-11-20T13:23:32;49.30;;;24.20;;
54368;SDS011;40266;52.434;17.056;2022-11-20T13:29:02;46.30;;;22.40;;
54368;SDS011;40266;52.434;17.056;2022-11-20T13:32:00;43.80;;;22.60;;
54368;SDS011;40266;52.434;17.056;2022-11-20T13:37:43;46.70;;;23.20;;
54368;SDS011;40266;52.434;17.056;2022-11-20T13:40:26;42.50;;;21.40;;
54368;SDS011;40266;52.434;17.056;2022-11-20T13:43:21;42.30;;;22.30;;
54368;SDS011;40266;52.434;17.056;2022-11-20T13:46:19;42.90;;;20.00;;
54368;SDS011;40266;52.434;17.056;2022-11-20T13:49:07;45.20;;;23.70;;
54368;SDS011;40266;52.434;17.056;2022-11-20T13:52:08;43.20;;;20.90;;
54368;SDS011;40266;52.434;17.056;2022-11-20T14:01:16;42.10;;;19.90;;
54368;SDS011;40266;52.434;17.056;2022-11-20T14:04:08;45.70;;;21.90;;
54368;SDS011;40266;52.434;17.056;2022-11-20T14:06:58;49.10;;;22.40;;
54368;SDS011;40266;52.434;17.056;2022-11-20T14:09:49;47.50;;;21.40;;
54368;SDS011;40266;52.434;17.056;2022-11-20T14:12:34;44.80;;;21.60;;
54368;SDS011;40266;52.434;17.056;2022-11-20T14:15:34;48.50;;;22.50;;
54368;SDS011;40266;52.434;17.056;2022-11-20T14:18:25;43.50;;;20.80;;
54368;SDS011;40266;52.434;17.056;2022-11-20T14:21:08;44.20;;;21.50;;
54368;SDS011;40266;52.434;17.056;2022-11-20T14:23:52;41.60;;;21.20;;
54368;SDS011;40266;52.434;17.056;2022-11-20T14:26:36;41.90;;;21.10;;
54368;SDS011;40266;52.434;17.056;2022-11-20T14:29:26;46.80;;;21.20;;
54368;SDS011;40266;52.434;17.056;2022-11-20T14:32:11;51.80;;;22.50;;
54368;SDS011;40266;52.434;17.056;2022-11-20T14:34:59;46.10;;;22.70;;
54368;SDS011;40266;52.434;17.056;2022-11-20T14:40:34;45.00;;;21.60;;
54368;SDS011;40266;52.434;17.056;2022-11-20T14:43:23;52.00;;;23.30;;
54368;SDS011;40266;52.434;17.056;2022-11-20T14:46:10;50.80;;;22.90;;
54368;SDS011;40266;52.434;17.056;2022-11-20T14:48:56;43.10;;;21.10;;
54368;SDS011;40266;52.434;17.056;2022-11-20T14:51:43;48.10;;;22.30;;
54368;SDS011;40266;52.434;17.056;2022-11-20T14:54:27;49.60;;;23.40;;
54368;SDS011;40266;52.434;17.056;2022-11-20T15:00:22;46.50;;;22.50;;
54368;SDS011;40266;52.434;17.056;2022-11-20T15:03:13;46.90;;;22.60;;
54368;SDS011;40266;52.434;17.056;2022-11-20T15:05:58;40.80;;;20.50;;
54368;SDS011;40266;52.434;17.056;2022-11-20T15:11:33;50.40;;;23.00;;
54368;SDS011;40266;52.434;17.056;2022-11-20T15:14:18;47.30;;;24.10;;
54368;SDS011;40266;52.434;17.056;2022-11-20T15:17:01;53.40;;;25.70;;
54368;SDS011;40266;52.434;17.056;2022-11-20T15:22:27;48.10;;;24.10;;
54368;SDS011;40266;52.434;17.056;2022-11-20T15:25:13;52.10;;;25.70;;
54368;SDS011;40266;52.434;17.056;2022-11-20T15:27:57;52.20;;;24.30;;
54368;SDS011;40266;52.434;17.056;2022-11-20T15:30:40;49.50;;;23.40;;
54368;SDS011;40266;52.434;17.056;2022-11-20T15:33:23;52.80;;;25.40;;
54368;SDS011;40266;52.434;17.056;2022-11-20T15:36:06;51.60;;;26.70;;
54368;SDS011;40266;52.434;17.056;2022-11-20T15:38:52;51.00;;;24.40;;
54368;SDS011;40266;52.434;17.056;2022-11-20T15:41:35;59.40;;;27.20;;
54368;SDS011;40266;52.434;17.056;2022-11-20T15:44:18;65.70;;;28.50;;
54368;SDS011;40266;52.434;17.056;2022-11-20T15:49:44;65.10;;;30.70;;
54368;SDS011;40266;52.434;17.056;2022-11-20T15:52:27;59.10;;;26.70;;
54368;SDS011;40266;52.434;17.056;2022-11-20T15:55:17;55.00;;;26.50;;
54368;SDS011;40266;52.434;17.056;2022-11-20T16:00:44;49.40;;;24.80;;
54368;SDS011;40266;52.434;17.056;2022-11-20T16:03:27;53.20;;;25.00;;
54368;SDS011;40266;52.434;17.056;2022-11-20T16:06:10;52.80;;;23.70;;
54368;SDS011;40266;52.434;17.056;2022-11-20T16:08:53;49.60;;;24.60;;
54368;SDS011;40266;52.434;17.056;2022-11-20T16:14:19;48.70;;;22.30;;
54368;SDS011;40266;52.434;17.056;2022-11-20T16:17:21;47.90;;;22.90;;
54368;SDS011;40266;52.434;17.056;2022-11-20T16:20:24;48.40;;;23.30;;
54368;SDS011;40266;52.434;17.056;2022-11-20T16:23:06;49.40;;;24.30;;
54368;SDS011;40266;52.434;17.056;2022-11-20T16:25:50;52.10;;;23.20;;
54368;SDS011;40266;52.434;17.056;2022-11-20T16:28:33;50.00;;;24.50;;
54368;SDS011;40266;52.434;17.056;2022-11-20T16:31:16;50.00;;;23.00;;
54368;SDS011;40266;52.434;17.056;2022-11-20T16:34:02;55.20;;;25.90;;
54368;SDS011;40266;52.434;17.056;2022-11-20T16:36:53;56.20;;;25.50;;
54368;SDS011;40266;52.434;17.056;2022-11-20T16:39:36;45.60;;;22.40;;
54368;SDS011;40266;52.434;17.056;2022-11-20T16:42:19;53.40;;;23.40;;
54368;SDS011;40266;52.434;17.056;2022-11-20T16:45:02;49.30;;;23.00;;
54368;SDS011;40266;52.434;17.056;2022-11-20T16:47:46;47.00;;;22.10;;
54368;SDS011;40266;52.434;17.056;2022-11-20T16:53:12;52.60;;;25.00;;
54368;SDS011;40266;52.434;17.056;2022-11-20T16:58:37;63.00;;;30.30;;
54368;SDS011;40266;52.434;17.056;2022-11-20T17:01:21;68.80;;;32.20;;
54368;SDS011;40266;52.434;17.056;2022-11-20T17:04:05;63.80;;;30.00;;
54368;SDS011;40266;52.434;17.056;2022-11-20T17:06:48;58.20;;;29.20;;
54368;SDS011;40266;52.434;17.056;2022-11-20T17:09:31;54.70;;;27.30;;
54368;SDS011;40266;52.434;17.056;2022-11-20T17:12:14;57.10;;;28.30;;
54368;SDS011;40266;52.434;17.056;2022-11-20T17:14:57;59.50;;;29.50;;
54368;SDS011;40266;52.434;17.056;2022-11-20T17:17:40;63.80;;;28.80;;
54368;SDS011;40266;52.434;17.056;2022-11-20T17:23:09;68.30;;;34.30;;
54368;SDS011;40266;52.434;17.056;2022-11-20T17:25:52;69.90;;;33.80;;
54368;SDS011;40266;52.434;17.056;2022-11-20T17:31:19;72.40;;;35.30;;
54368;SDS011;40266;52.434;17.056;2022-11-20T17:34:02;68.60;;;34.80;;
54368;SDS011;40266;52.434;17.056;2022-11-20T17:36:46;65.60;;;33.40;;
54368;SDS011;40266;52.434;17.056;2022-11-20T17:42:14;62.20;;;32.30;;
54368;SDS011;40266;52.434;17.056;2022-11-20T17:45:09;65.40;;;31.10;;
54368;SDS011;40266;52.434;17.056;2022-11-20T17:50:34;66.60;;;31.10;;
54368;SDS011;40266;52.434;17.056;2022-11-20T17:53:17;65.00;;;32.60;;
54368;SDS011;40266;52.434;17.056;2022-11-20T17:56:00;66.90;;;34.60;;
54368;SDS011;40266;52.434;17.056;2022-11-20T17:59:03;77.90;;;38.40;;
54368;SDS011;40266;52.434;17.056;2022-11-20T18:01:47;82.50;;;41.60;;
54368;SDS011;40266;52.434;17.056;2022-11-20T18:04:30;75.50;;;38.40;;
54368;SDS011;40266;52.434;17.056;2022-11-20T18:07:13;76.40;;;37.90;;
54368;SDS011;40266;52.434;17.056;2022-11-20T18:09:56;78.50;;;38.40;;
54368;SDS011;40266;52.434;17.056;2022-11-20T18:12:39;73.90;;;37.30;;
54368;SDS011;40266;52.434;17.056;2022-11-20T18:15:21;79.10;;;39.10;;
54368;SDS011;40266;52.434;17.056;2022-11-20T18:18:04;73.80;;;36.60;;
54368;SDS011;40266;52.434;17.056;2022-11-20T18:23:34;70.80;;;36.60;;
54368;SDS011;40266;52.434;17.056;2022-11-20T18:26:18;69.50;;;34.90;;
54368;SDS011;40266;52.434;17.056;2022-11-20T18:29:00;79.90;;;38.70;;
54368;SDS011;40266;52.434;17.056;2022-11-20T18:31:49;65.20;;;32.90;;
54368;SDS011;40266;52.434;17.056;2022-11-20T18:34:32;70.60;;;34.60;;
54368;SDS011;40266;52.434;17.056;2022-11-20T18:37:15;64.60;;;32.50;;
54368;SDS011;40266;52.434;17.056;2022-11-20T18:39:58;63.30;;;33.00;;
54368;SDS011;40266;52.434;17.056;2022-11-20T18:45:43;70.50;;;33.50;;
54368;SDS011;40266;52.434;17.056;2022-11-20T18:51:08;60.60;;;30.80;;
54368;SDS011;40266;52.434;17.056;2022-11-20T18:53:53;65.70;;;30.70;;
54368;SDS011;40266;52.434;17.056;2022-11-20T18:59:19;72.90;;;33.10;;
54368;SDS011;40266;52.434;17.056;2022-11-20T19:02:02;65.60;;;30.80;;
54368;SDS011;40266;52.434;17.056;2022-11-20T19:07:28;66.00;;;31.70;;
54368;SDS011;40266;52.434;17.056;2022-11-20T19:10:11;65.50;;;32.50;;
54368;SDS011;40266;52.434;17.056;2022-11-20T19:15:37;68.60;;;32.60;;
54368;SDS011;40266;52.434;17.056;2022-11-20T19:18:19;59.40;;;31.30;;
54368;SDS011;40266;52.434;17.056;2022-11-20T19:21:06;60.30;;;30.30;;
54368;SDS011;40266;52.434;17.056;2022-11-20T19:23:51;70.60;;;31.80;;
54368;SDS011;40266;52.434;17.056;2022-11-20T19:26:37;65.80;;;32.60;;
54368;SDS011;40266;52.434;17.056;2022-11-20T19:32:04;70.60;;;34.40;;
54368;SDS011;40266;52.434;17.056;2022-11-20T19:34:47;64.40;;;31.00;;
54368;SDS011;40266;52.434;17.056;2022-11-20T19:37:33;65.90;;;33.70;;
54368;SDS011;40266;52.434;17.056;2022-11-20T19:40:16;66.00;;;31.30;;
54368;SDS011;40266;52.434;17.056;2022-11-20T19:45:42;66.20;;;30.50;;
54368;SDS011;40266;52.434;17.056;2022-11-20T19:48:25;72.00;;;34.10;;
54368;SDS011;40266;52.434;17.056;2022-11-20T19:53:51;66.50;;;30.20;;
54368;SDS011;40266;52.434;17.056;2022-11-20T19:56:36;70.40;;;33.50;;
54368;SDS011;40266;52.434;17.056;2022-11-20T19:59:19;72.30;;;32.40;;
54368;SDS011;40266;52.434;17.056;2022-11-20T20:02:02;71.40;;;34.90;;
54368;SDS011;40266;52.434;17.056;2022-11-20T20:04:45;63.60;;;31.50;;
54368;SDS011;40266;52.434;17.056;2022-11-20T20:07:28;64.70;;;30.30;;
54368;SDS011;40266;52.434;17.056;2022-11-20T20:12:54;76.10;;;35.60;;
54368;SDS011;40266;52.434;17.056;2022-11-20T20:15:42;69.00;;;30.50;;
54368;SDS011;40266;52.434;17.056;2022-11-20T20:18:25;61.60;;;30.60;;
54368;SDS011;40266;52.434;17.056;2022-11-20T20:21:09;66.90;;;31.60;;
54368;SDS011;40266;52.434;17.056;2022-11-20T20:23:53;66.20;;;31.40;;
54368;SDS011;40266;52.434;17.056;2022-11-20T20:26:36;65.40;;;32.10;;
54368;SDS011;40266;52.434;17.056;2022-11-20T20:29:20;64.90;;;30.40;;
54368;SDS011;40266;52.434;17.056;2022-11-20T20:32:04;71.10;;;32.60;;
54368;SDS011;40266;52.434;17.056;2022-11-20T20:34:47;71.90;;;31.80;;
54368;SDS011;40266;52.434;17.056;2022-11-20T20:37:30;69.90;;;30.90;;
54368;SDS011;40266;52.434;17.056;2022-11-20T20:40:13;67.40;;;32.00;;
54368;SDS011;40266;52.434;17.056;2022-11-20T20:42:56;66.60;;;31.40;;
54368;SDS011;40266;52.434;17.056;2022-11-20T20:45:46;63.30;;;31.20;;
54368;SDS011;40266;52.434;17.056;2022-11-20T20:48:30;70.40;;;33.90;;